Time;durP1;ratioP1;P1;durP2;ratioP2;P2;SDS_P1;SDS_P2;PMS_P1;PMS_P2;Temp;Humidity;BMP_temperature;BMP_pressure;BME280_temperature;BME280_humidity;BME280_pressure;Samples;Min_cycle;Max_cycle;Signal;HPM_P1;HPM_P2
2023/10/13 00:00:41;;;;;;;4.63;3.58;;;17.00;1.00;;;;;;5138277;28;20060;-72
2023/10/13 00:03:15;;;;;;;6.15;3.58;;;16.90;1.00;;;;;;5149843;28;20053;-71
2023/10/13 00:05:47;;;;;;;4.82;3.70;;;16.90;1.00;;;;;;5119570;28;20045;-63
2023/10/13 00:08:20;;;;;;;8.25;3.60;;;16.90;1.00;;;;;;5168924;28;20499;-72
2023/10/13 00:10:52;;;;;;;3.95;3.03;;;16.90;1.00;;;;;;5150899;28;20384;-66
2023/10/13 00:13:26;;;;;;;5.93;3.35;;;16.80;1.00;;;;;;5156173;28;20037;-69
2023/10/13 00:16:03;;;;;;;;;;;16.80;1.00;;;;;;5149424;28;20498;-70
2023/10/13 00:18:46;;;;;;;4.88;3.60;;;16.80;1.00;;;;;;5133236;28;19921;-70
2023/10/13 00:21:31;;;;;;;5.32;3.17;;;16.80;1.00;;;;;;5117765;28;20056;-66
2023/10/13 00:24:12;;;;;;;4.10;3.28;;;16.80;1.00;;;;;;5120319;28;20057;-68
2023/10/13 00:26:46;;;;;;;7.47;3.45;;;16.90;1.00;;;;;;5153361;28;20210;-70
2023/10/13 00:29:29;;;;;;;3.55;3.08;;;16.90;1.00;;;;;;5130981;28;20041;-70
2023/10/13 00:32:04;;;;;;;6.00;3.50;;;16.90;1.00;;;;;;5099439;28;20092;-70
2023/10/13 00:34:38;;;;;;;4.95;3.45;;;16.90;1.00;;;;;;5105835;28;20072;-69
2023/10/13 00:37:17;;;;;;;4.47;3.00;;;17.00;1.00;;;;;;5147263;28;20045;-70
2023/10/13 00:39:56;;;;;;;5.28;3.78;;;17.10;1.00;;;;;;5153578;28;20041;-72
2023/10/13 00:42:50;;;;;;;8.27;3.45;;;17.10;1.00;;;;;;5154185;28;20522;-71
2023/10/13 00:45:22;;;;;;;4.55;3.50;;;17.20;1.00;;;;;;5152728;28;20044;-71
2023/10/13 00:48:01;;;;;;;6.07;3.40;;;17.10;1.00;;;;;;5120158;28;20492;-69
2023/10/13 00:50:36;;;;;;;6.30;3.65;;;17.00;1.00;;;;;;5153446;28;20040;-66
2023/10/13 00:53:13;;;;;;;7.00;3.75;;;16.90;1.00;;;;;;5149301;28;20045;-69
2023/10/13 00:55:50;;;;;;;4.80;3.75;;;16.80;1.00;;;;;;5136850;28;20209;-72
2023/10/13 00:58:24;;;;;;;5.53;3.47;;;16.80;1.00;;;;;;5144429;28;20040;-71
2023/10/13 01:01:17;;;;;;;8.52;4.28;;;16.70;1.00;;;;;;5198933;23;20064;-68
2023/10/13 01:03:55;;;;;;;7.38;3.55;;;16.70;1.00;;;;;;5233414;23;20096;-71
2023/10/13 01:06:29;;;;;;;4.63;3.85;;;16.70;1.00;;;;;;5180437;28;20221;-72
2023/10/13 01:09:17;;;;;;;6.88;3.72;;;16.80;1.00;;;;;;5146659;28;20046;-73
2023/10/13 01:11:55;;;;;;;7.82;4.07;;;17.00;1.00;;;;;;5152321;28;20113;-73
2023/10/13 01:14:28;;;;;;;5.63;3.45;;;17.00;1.00;;;;;;5186220;28;20053;-65
2023/10/13 01:17:01;;;;;;;10.30;3.72;;;17.00;1.00;;;;;;5137473;28;20144;-69
2023/10/13 01:19:45;;;;;;;5.85;3.45;;;17.10;1.00;;;;;;5161156;28;20067;-70
2023/10/13 01:22:21;;;;;;;5.28;2.92;;;17.10;1.00;;;;;;5191058;28;20082;-68
2023/10/13 01:25:04;;;;;;;9.88;3.67;;;17.10;1.00;;;;;;5165778;28;20164;-69
2023/10/13 01:27:40;;;;;;;5.75;3.90;;;17.10;1.00;;;;;;5168279;28;20700;-69
2023/10/13 01:30:12;;;;;;;9.73;4.43;;;17.30;1.00;;;;;;5184012;28;20039;-70
2023/10/13 01:32:46;;;;;;;4.47;3.50;;;17.40;1.00;;;;;;5155674;28;20144;-69
2023/10/13 01:35:35;;;;;;;7.78;3.83;;;17.50;1.00;;;;;;5139169;28;20045;-70
2023/10/13 01:38:09;;;;;;;8.07;3.05;;;17.70;1.00;;;;;;5173031;28;20052;-69
2023/10/13 01:40:51;;;;;;;15.38;4.00;;;17.80;1.00;;;;;;5158579;28;20420;-71
2023/10/13 01:43:25;;;;;;;4.05;3.28;;;17.80;1.00;;;;;;5171653;28;20570;-69
2023/10/13 01:45:57;;;;;;;5.88;3.20;;;17.80;1.00;;;;;;5171219;28;20098;-69
2023/10/13 01:48:38;;;;;;;6.93;3.75;;;17.70;1.00;;;;;;5149578;28;20041;-68
2023/10/13 01:51:14;;;;;;;11.82;3.97;;;17.50;1.00;;;;;;5157516;28;20029;-68
2023/10/13 01:53:53;;;;;;;6.03;4.03;;;17.40;1.00;;;;;;5170905;28;20045;-69
2023/10/13 01:56:30;;;;;;;6.00;3.55;;;17.30;1.00;;;;;;5187436;28;20033;-65
2023/10/13 01:59:02;;;;;;;6.88;3.90;;;17.30;1.00;;;;;;5169578;28;20037;-67
2023/10/13 02:01:37;;;;;;;5.00;3.50;;;17.20;1.00;;;;;;5172091;28;20049;-69
2023/10/13 02:04:11;;;;;;;5.88;3.75;;;17.20;1.00;;;;;;5147136;28;20046;-66
2023/10/13 02:06:43;;;;;;;;;;;17.20;1.00;;;;;;5150834;28;20488;-68
2023/10/13 02:09:25;;;;;;;4.13;3.30;;;17.20;1.00;;;;;;5153045;28;19935;-66
2023/10/13 02:11:59;;;;;;;9.32;4.13;;;17.20;1.00;;;;;;5152306;28;20030;-67
2023/10/13 02:14:33;;;;;;;6.18;3.83;;;17.30;1.00;;;;;;5135962;28;20041;-66
2023/10/13 02:17:16;;;;;;;7.97;3.70;;;17.20;1.00;;;;;;5167260;28;20133;-71
2023/10/13 02:19:47;;;;;;;4.10;3.50;;;17.20;1.00;;;;;;5151267;28;20049;-68
2023/10/13 02:22:29;;;;;;;3.55;3.22;;;17.20;1.00;;;;;;5182636;28;20031;-68
2023/10/13 02:25:07;;;;;;;5.00;3.20;;;17.30;1.00;;;;;;5158203;28;20045;-67
2023/10/13 02:27:40;;;;;;;6.93;3.30;;;17.40;1.00;;;;;;5146953;28;20216;-69
2023/10/13 02:30:13;;;;;;;5.60;3.20;;;17.40;1.00;;;;;;5136405;28;20060;-68
2023/10/13 02:32:48;;;;;;;8.27;3.55;;;17.30;1.00;;;;;;5134578;28;20064;-67
2023/10/13 02:35:29;;;;;;;5.43;3.67;;;17.20;1.00;;;;;;5171406;28;20050;-66
2023/10/13 02:38:10;;;;;;;10.00;3.97;;;17.10;1.00;;;;;;5158041;28;20053;-67
2023/10/13 02:40:44;;;;;;;6.38;4.00;;;17.10;1.00;;;;;;5157043;28;20055;-69
2023/10/13 02:43:21;;;;;;;4.88;3.45;;;17.10;1.00;;;;;;5172837;28;20038;-67
2023/10/13 02:46:00;;;;;;;5.88;3.53;;;17.00;1.00;;;;;;5151671;28;20026;-69
2023/10/13 02:48:40;;;;;;;7.55;3.65;;;16.90;1.00;;;;;;5151218;28;20030;-69
2023/10/13 02:51:22;;;;;;;8.15;4.47;;;16.80;1.00;;;;;;5154550;28;20568;-69
2023/10/13 02:54:02;;;;;;;6.82;3.70;;;16.70;13.60;;;;;;5153414;28;20266;-69
2023/10/13 02:56:35;;;;;;;5.38;4.15;;;16.60;55.00;;;;;;5148309;28;20049;-68
2023/10/13 02:59:06;;;;;;;6.07;4.05;;;16.60;24.30;;;;;;5169107;28;20068;-67
2023/10/13 03:01:38;;;;;;;6.28;3.83;;;16.60;34.80;;;;;;5164700;28;20030;-69
2023/10/13 03:04:09;;;;;;;9.18;3.50;;;16.60;2.10;;;;;;5118092;28;20126;-66
2023/10/13 03:06:47;;;;;;;4.57;3.78;;;16.60;4.60;;;;;;5137562;28;20049;-69
2023/10/13 03:09:21;;;;;;;4.80;3.67;;;16.60;1.00;;;;;;5150820;28;20507;-69
2023/10/13 03:12:03;;;;;;;7.47;3.83;;;16.60;8.60;;;;;;5149027;28;20038;-66
2023/10/13 03:14:35;;;;;;;8.50;3.90;;;16.60;29.00;;;;;;5149228;28;20052;-66
2023/10/13 03:17:09;;;;;;;5.18;3.58;;;16.60;45.40;;;;;;5152084;28;20037;-68
2023/10/13 03:19:51;;;;;;;5.33;4.07;;;16.60;40.20;;;;;;5171119;28;20075;-66
2023/10/13 03:22:31;;;;;;;6.65;3.80;;;16.60;55.20;;;;;;5147898;28;20049;-67
2023/10/13 03:25:05;;;;;;;6.97;3.97;;;16.60;17.70;;;;;;5121613;28;20050;-67
2023/10/13 03:28:23;;;;;;;6.28;3.78;;;16.60;53.60;;;;;;5162730;28;20046;-67
2023/10/13 03:30:38;;;;;;;9.30;4.15;;;16.50;90.40;;;;;;5149424;28;20159;-68
2023/10/13 03:33:14;;;;;;;4.03;3.40;;;16.50;93.80;;;;;;5171471;28;20042;-68
2023/10/13 03:35:53;;;;;;;5.25;3.55;;;16.60;98.50;;;;;;5154084;28;20368;-67
2023/10/13 03:38:27;;;;;;;5.57;3.33;;;16.60;68.70;;;;;;5148955;28;20042;-68
2023/10/13 03:41:20;;;;;;;6.53;3.72;;;16.60;52.70;;;;;;5115159;28;20686;-68
2023/10/13 03:44:07;;;;;;;4.25;3.85;;;16.70;24.60;;;;;;5152839;28;20050;-68
2023/10/13 03:46:45;;;;;;;7.32;4.00;;;16.70;92.20;;;;;;5169386;28;20033;-65
2023/10/13 03:49:21;;;;;;;4.90;3.75;;;16.70;92.40;;;;;;5152492;28;20365;-68
2023/10/13 03:51:57;;;;;;;6.75;4.03;;;16.70;88.80;;;;;;5154213;28;20041;-69
2023/10/13 03:54:30;;;;;;;3.78;2.95;;;16.70;1.00;;;;;;5136847;28;20050;-69
2023/10/13 03:57:10;;;;;;;5.82;3.95;;;17.00;1.00;;;;;;5166990;28;20056;-68
2023/10/13 03:59:48;;;;;;;4.43;3.03;;;17.10;1.00;;;;;;5162090;28;20037;-67
2023/10/13 04:02:27;;;;;;;5.40;2.90;;;17.30;1.00;;;;;;5151535;28;20026;-69
2023/10/13 04:05:07;;;;;;;6.97;2.95;;;17.60;1.00;;;;;;5138320;28;20044;-67
2023/10/13 04:08:44;;;;;;;3.42;2.20;;;18.00;99.90;;;;;;5154308;28;20133;-68
2023/10/13 04:21:42;;;;;;;7.88;3.20;;;19.80;1.00;;;;;;5136928;28;20232;-69
2023/10/13 04:32:38;;;;;;;;;;;20.40;99.90;;;;;;5135163;28;20049;-66
2023/10/13 04:38:55;;;;;;;2.65;2.20;;;19.60;1.00;;;;;;5169934;28;20079;-65
2023/10/13 04:40:59;;;;;;;3.92;2.60;;;19.10;1.00;;;;;;5145711;28;20092;-67
2023/10/13 04:43:54;;;;;;;6.70;3.08;;;18.70;99.90;;;;;;5128242;28;20057;-65
2023/10/13 04:46:35;;;;;;;6.15;3.08;;;18.50;1.00;;;;;;5142882;28;20042;-63
2023/10/13 04:49:25;;;;;;;8.02;2.55;;;18.40;1.00;;;;;;5147591;28;20558;-69
2023/10/13 04:55:09;;;;;;;5.18;3.35;;;18.30;1.00;;;;;;5125614;28;20045;-68
2023/10/13 04:58:00;;;;;;;4.18;3.40;;;18.20;99.90;;;;;;5138697;28;20246;-70
2023/10/13 05:01:23;;;;;;;5.93;3.25;;;18.00;1.00;;;;;;5140892;28;20054;-65
2023/10/13 05:47:46;;;;;;;6.32;4.18;;;17.00;1.00;;;;;;5128835;28;20047;-67
2023/10/13 05:50:04;;;;;;;6.80;3.90;;;17.10;1.00;;;;;;5118714;28;20047;-68
2023/10/13 06:29:56;;;;;;;8.85;4.97;;;18.00;1.00;;;;;;5153029;28;20037;-71
2023/10/13 06:32:27;;;;;;;8.20;4.78;;;18.00;1.00;;;;;;5135980;28;20041;-67
2023/10/13 06:35:18;;;;;;;9.38;5.15;;;18.10;1.00;;;;;;5165901;28;20028;-69
2023/10/13 06:37:53;;;;;;;7.35;4.70;;;18.20;1.00;;;;;;5125658;28;20045;-66
2023/10/13 06:43:17;;;;;;;8.68;4.72;;;18.30;1.00;;;;;;5159364;28;20038;-64
2023/10/13 06:45:56;;;;;;;9.75;5.07;;;18.20;1.00;;;;;;5162550;28;20128;-68
2023/10/13 06:48:34;;;;;;;8.13;4.85;;;18.20;1.00;;;;;;5171605;28;20322;-66
2023/10/13 06:51:17;;;;;;;7.10;4.43;;;18.10;1.00;;;;;;5139155;28;20044;-69
2023/10/13 06:53:51;;;;;;;8.70;5.50;;;18.20;1.00;;;;;;5152072;28;20053;-68
2023/10/13 06:56:27;;;;;;;6.63;5.38;;;18.20;1.00;;;;;;5131435;28;20048;-68
2023/10/13 06:59:04;;;;;;;11.77;4.65;;;18.30;1.00;;;;;;5154471;28;20042;-67
2023/10/13 07:01:38;;;;;;;9.88;5.10;;;18.50;1.00;;;;;;5133431;28;20052;-69
2023/10/13 07:04:13;;;;;;;7.97;5.10;;;18.80;99.90;;;;;;5163072;28;20042;-70
2023/10/13 07:06:48;;;;;;;5.75;4.53;;;19.00;99.90;;;;;;5164358;28;20044;-66
2023/10/13 07:12:16;;;;;;;8.25;4.07;;;19.50;1.00;;;;;;5166494;28;20235;-66
2023/10/13 07:14:59;;;;;;;10.50;4.75;;;19.70;1.00;;;;;;5119775;28;20052;-67
2023/10/13 07:17:37;;;;;;;6.43;4.38;;;19.90;1.00;;;;;;5167695;28;20048;-69
2023/10/13 07:20:23;;;;;;;9.57;4.68;;;20.20;1.00;;;;;;5156629;28;20106;-69
2023/10/13 07:23:03;;;;;;;6.88;4.07;;;20.50;1.00;;;;;;5130121;28;20055;-69
2023/10/13 07:25:37;;;;;;;6.82;4.15;;;20.80;99.90;;;;;;5104608;28;20046;-69
2023/10/13 07:28:08;;;;;;;12.07;4.63;;;21.10;99.90;;;;;;5134787;28;20033;-67
2023/10/13 07:31:11;;;;;;;7.93;4.30;;;21.30;94.30;;;;;;5161301;28;20046;-68
2023/10/13 07:33:41;;;;;;;5.95;4.05;;;21.50;1.00;;;;;;5164214;28;20056;-68
2023/10/13 07:36:17;;;;;;;5.88;4.13;;;21.70;1.00;;;;;;5155727;28;20048;-67
2023/10/13 07:39:09;;;;;;;5.90;3.80;;;21.70;1.00;;;;;;5171435;28;20034;-68
2023/10/13 07:41:42;;;;;;;7.03;4.38;;;21.80;99.90;;;;;;5156240;28;20047;-70
2023/10/13 07:44:19;;;;;;;5.55;3.58;;;21.90;99.90;;;;;;5169352;28;20048;-66
2023/10/13 07:46:59;;;;;;;10.52;4.45;;;22.00;99.90;;;;;;5146979;28;20445;-67
2023/10/13 07:49:37;;;;;;;16.05;4.03;;;22.20;99.90;;;;;;5141011;28;20031;-70
2023/10/13 07:57:59;;;;;;;6.43;4.35;;;22.50;58.00;;;;;;5115315;28;20046;-66
2023/10/13 08:05:58;;;;;;;5.63;3.70;;;22.80;1.00;;;;;;5101666;28;20352;-69
2023/10/13 08:08:40;;;;;;;6.15;3.58;;;22.90;1.00;;;;;;5065949;28;20046;-70
2023/10/13 08:14:11;;;;;;;5.70;3.13;;;23.20;1.00;;;;;;5115878;28;20055;-69
2023/10/13 08:19:32;;;;;;;3.63;3.00;;;23.80;99.90;;;;;;5124785;28;20034;-67
2023/10/13 08:25:20;;;;;;;9.95;3.00;;;24.10;27.60;;;;;;5112116;28;20049;-69
2023/10/13 08:28:04;;;;;;;6.53;3.45;;;24.20;99.90;;;;;;5103039;28;20043;-67
2023/10/13 08:31:06;;;;;;;6.18;3.20;;;24.50;99.90;;;;;;5109284;28;20053;-69
2023/10/13 08:33:32;;;;;;;5.72;3.03;;;24.50;99.90;;;;;;5126421;28;20395;-69
2023/10/13 08:36:27;;;;;;;6.57;2.50;;;24.70;1.00;;;;;;5142964;28;20038;-69
2023/10/13 08:39:15;;;;;;;4.75;2.20;;;24.90;1.00;;;;;;5153676;28;20038;-68
2023/10/13 08:42:10;;;;;;;3.75;2.40;;;25.20;1.00;;;;;;5147456;28;20350;-66
2023/10/13 08:44:52;;;;;;;3.70;2.30;;;25.50;1.00;;;;;;5146964;28;20356;-69
2023/10/13 08:47:28;;;;;;;6.53;2.50;;;25.60;99.90;;;;;;5134728;28;20480;-66
2023/10/13 08:50:10;;;;;;;4.03;2.85;;;25.90;1.00;;;;;;5132944;28;20038;-65
2023/10/13 08:52:48;;;;;;;4.93;2.88;;;26.20;1.00;;;;;;5169297;28;20368;-70
2023/10/13 08:55:39;;;;;;;4.60;2.47;;;26.70;32.10;;;;;;5157146;28;20163;-66
2023/10/13 08:58:13;;;;;;;3.28;2.08;;;27.10;99.90;;;;;;5151989;28;20033;-69
2023/10/13 09:01:11;;;;;;;;;;;27.10;1.00;;;;;;5162234;28;20046;-64
2023/10/13 09:03:53;;;;;;;4.65;2.00;;;27.20;99.90;;;;;;5150251;28;19927;-68
2023/10/13 09:06:26;;;;;;;5.15;1.73;;;27.30;1.00;;;;;;5130432;28;20050;-67
2023/10/13 09:09:07;;;;;;;2.65;1.92;;;27.00;1.00;;;;;;5154559;28;20350;-67
2023/10/13 09:11:53;;;;;;;4.57;2.15;;;27.10;1.00;;;;;;5174054;28;20025;-67
2023/10/13 09:14:35;;;;;;;6.30;2.17;;;27.20;1.00;;;;;;5148994;28;20195;-71
2023/10/13 09:17:34;;;;;;;4.10;1.80;;;27.70;1.00;;;;;;5113521;28;20441;-66
2023/10/13 09:26:08;;;;;;;4.25;2.80;;;28.70;99.90;;;;;;5158408;28;20291;-69
2023/10/13 09:28:32;;;;;;;3.75;2.28;;;28.80;99.90;;;;;;5154593;28;20046;-69
2023/10/13 09:31:09;;;;;;;6.45;2.35;;;28.90;99.90;;;;;;5177381;28;20029;-69
2023/10/13 09:33:55;;;;;;;8.40;2.70;;;28.80;92.60;;;;;;5135970;28;20050;-68
2023/10/13 09:36:34;;;;;;;5.60;1.83;;;28.30;99.90;;;;;;5149247;28;20031;-68
2023/10/13 09:39:29;;;;;;;5.00;2.20;;;27.90;1.00;;;;;;5138977;28;20050;-67
2023/10/13 09:42:03;;;;;;;5.80;2.70;;;28.10;1.00;;;;;;5144237;28;20037;-69
2023/10/13 09:44:34;;;;;;;5.82;2.42;;;28.40;99.90;;;;;;5142329;28;20181;-68
2023/10/13 09:47:17;;;;;;;4.10;2.50;;;28.00;99.90;;;;;;5099930;28;20034;-67
2023/10/13 09:49:52;;;;;;;4.68;2.92;;;27.90;99.90;;;;;;5169708;28;20045;-69
2023/10/13 09:52:27;;;;;;;4.07;2.63;;;28.20;99.90;;;;;;5169967;28;20320;-67
2023/10/13 09:55:13;;;;;;;3.25;1.73;;;28.50;59.60;;;;;;5142946;28;20042;-66
2023/10/13 09:57:59;;;;;;;7.25;2.58;;;29.10;99.90;;;;;;5169076;28;20037;-67
2023/10/13 10:06:05;;;;;;;3.67;2.10;;;30.80;1.00;;;;;;5167077;28;20038;-68
2023/10/13 10:08:48;;;;;;;3.90;2.08;;;30.90;1.00;;;;;;5164413;28;20339;-67
2023/10/13 10:11:45;;;;;;;3.20;2.20;;;30.80;1.00;;;;;;5137395;28;20042;-66
2023/10/13 10:14:44;;;;;;;7.82;2.15;;;30.80;1.00;;;;;;5158188;28;20038;-68
2023/10/13 10:17:16;;;;;;;3.38;2.22;;;30.40;1.00;;;;;;5140732;28;20044;-69
2023/10/13 10:19:56;;;;;;;3.25;2.28;;;30.80;99.90;;;;;;5168091;28;20052;-68
2023/10/13 10:22:36;;;;;;;6.07;1.88;;;31.70;1.00;;;;;;5134610;28;20054;-69
2023/10/13 10:25:24;;;;;;;7.55;2.50;;;32.50;1.00;;;;;;5153159;28;20686;-67
2023/10/13 10:28:01;;;;;;;3.20;2.13;;;32.30;99.90;;;;;;5152004;28;20087;-66
2023/10/13 10:30:38;;;;;;;4.95;2.67;;;33.30;99.90;;;;;;5148989;28;20140;-68
2023/10/13 10:33:13;;;;;;;3.63;2.42;;;33.50;99.90;;;;;;5169609;28;20059;-67
2023/10/13 10:35:46;;;;;;;4.60;2.47;;;33.40;1.00;;;;;;5157384;28;20067;-67
2023/10/13 10:38:32;;;;;;;3.33;2.30;;;33.10;99.90;;;;;;5173920;28;20048;-70
2023/10/13 10:41:09;;;;;;;3.95;2.20;;;33.60;99.90;;;;;;5156577;28;20046;-68
2023/10/13 10:43:43;;;;;;;3.47;1.90;;;34.00;99.90;;;;;;5152794;28;20151;-69
2023/10/13 10:46:26;;;;;;;8.43;2.53;;;33.40;99.90;;;;;;5148469;28;20048;-67
2023/10/13 10:49:00;;;;;;;5.80;2.63;;;32.50;99.90;;;;;;5151345;28;20034;-67
2023/10/13 10:51:33;;;;;;;5.28;2.20;;;32.40;1.00;;;;;;5161951;28;20327;-66
2023/10/13 10:54:21;;;;;;;7.72;2.40;;;31.50;1.00;;;;;;5137585;28;20064;-68
2023/10/13 10:56:56;;;;;;;4.70;2.35;;;32.10;1.00;;;;;;5153989;28;20052;-70
2023/10/13 10:59:37;;;;;;;8.50;2.63;;;32.30;99.90;;;;;;5116456;28;20245;-69
2023/10/13 11:02:18;;;;;;;3.78;2.30;;;32.70;99.90;;;;;;5156071;28;20034;-67
2023/10/13 11:04:57;;;;;;;7.32;2.92;;;33.00;99.90;;;;;;5139673;28;20072;-67
2023/10/13 11:07:34;;;;;;;6.55;2.90;;;33.40;1.00;;;;;;5114373;28;20041;-67
2023/10/13 11:10:26;;;;;;;4.57;2.47;;;33.50;99.90;;;;;;5145744;28;20146;-65
2023/10/13 11:13:13;;;;;;;4.75;2.53;;;34.00;1.00;;;;;;5152552;28;20053;-70
2023/10/13 11:15:46;;;;;;;6.47;3.15;;;33.80;99.90;;;;;;5103882;28;20052;-68
2023/10/13 11:18:33;;;;;;;7.15;2.45;;;34.00;99.90;;;;;;5152858;28;20040;-66
2023/10/13 11:21:11;;;;;;;4.95;2.90;;;34.60;99.90;;;;;;5128212;28;20042;-67
2023/10/13 11:23:45;;;;;;;4.03;2.40;;;34.60;1.00;;;;;;5135832;28;20062;-69
2023/10/13 11:26:18;;;;;;;3.72;2.30;;;34.90;99.90;;;;;;5154378;28;20022;-68
2023/10/13 11:28:55;;;;;;;4.72;2.63;;;35.00;1.00;;;;;;5172666;28;20021;-67
2023/10/13 11:31:29;;;;;;;4.18;2.30;;;35.70;1.00;;;;;;5131562;28;20232;-66
2023/10/13 11:34:05;;;;;;;4.10;2.25;;;35.00;1.00;;;;;;5164809;28;20260;-66
2023/10/13 11:36:40;;;;;;;4.03;2.10;;;35.30;1.00;;;;;;5135251;28;20072;-65
2023/10/13 11:39:18;;;;;;;6.60;1.98;;;34.30;1.00;;;;;;5155385;28;20244;-69
2023/10/13 11:41:54;;;;;;;8.30;2.38;;;33.40;1.00;;;;;;5134498;28;20068;-67
2023/10/13 11:44:31;;;;;;;4.07;2.38;;;33.90;1.00;;;;;;5115633;28;20042;-68
2023/10/13 11:47:32;;;;;;;3.30;1.92;;;34.30;1.00;;;;;;5117602;28;20038;-69
2023/10/13 11:50:04;;;;;;;5.70;2.03;;;34.40;1.00;;;;;;5155928;28;20026;-69
2023/10/13 11:52:36;;;;;;;5.80;2.00;;;33.90;1.00;;;;;;5154809;28;20049;-68
2023/10/13 11:55:10;;;;;;;4.78;2.17;;;34.00;1.00;;;;;;5146443;28;20037;-68
2023/10/13 11:57:47;;;;;;;3.97;2.45;;;34.30;1.00;;;;;;5143470;28;20030;-69
2023/10/13 12:00:50;;;;;;;4.40;2.50;;;34.70;1.00;;;;;;5131295;28;20046;-68
2023/10/13 12:11:54;;;;;;;3.97;2.30;;;35.80;1.00;;;;;;5164778;28;20042;-68
2023/10/13 12:14:29;;;;;;;11.73;2.30;;;36.50;1.00;;;;;;5157740;28;20224;-70
2023/10/13 12:17:10;;;;;;;4.32;2.53;;;36.20;1.00;;;;;;5122520;28;20232;-68
2023/10/13 12:19:43;;;;;;;2.30;2.03;;;35.20;1.00;;;;;;5166749;28;20045;-70
2023/10/13 12:22:25;;;;;;;3.35;2.30;;;34.20;1.00;;;;;;5166740;28;20033;-66
2023/10/13 12:24:56;;;;;;;5.30;2.58;;;34.60;1.00;;;;;;5151338;28;20362;-68
2023/10/13 12:27:45;;;;;;;3.40;2.38;;;35.60;1.00;;;;;;5156132;28;20285;-67
2023/10/13 12:30:35;;;;;;;6.93;2.65;;;35.40;1.00;;;;;;5161603;28;20242;-69
2023/10/13 12:33:09;;;;;;;6.70;2.72;;;35.30;1.00;;;;;;5159211;28;20035;-69
2023/10/13 12:36:03;;;;;;;6.10;2.33;;;35.30;1.00;;;;;;5151938;28;20030;-68
2023/10/13 12:38:50;;;;;;;13.65;2.70;;;35.70;1.00;;;;;;5131395;28;20046;-69
2023/10/13 12:50:34;;;;;;;5.65;2.35;;;35.00;99.90;;;;;;5134187;28;20054;-68
2023/10/13 12:53:13;;;;;;;7.00;2.72;;;34.70;99.90;;;;;;5170368;28;20056;-68
2023/10/13 12:55:45;;;;;;;3.28;2.60;;;35.40;99.90;;;;;;5139897;28;20046;-70
2023/10/13 12:58:26;;;;;;;6.05;2.50;;;35.70;99.90;;;;;;5160663;28;20027;-67
2023/10/13 13:01:06;;;;;;;3.70;2.10;;;35.10;99.90;;;;;;5116143;28;20060;-67
2023/10/13 13:03:44;;;;;;;5.22;2.63;;;36.00;99.90;;;;;;5129436;28;20056;-69
2023/10/13 13:06:29;;;;;;;9.93;2.70;;;36.40;99.90;;;;;;5133650;28;20054;-70
2023/10/13 13:09:00;;;;;;;10.20;2.70;;;35.50;99.90;;;;;;5152930;28;20256;-69
2023/10/13 13:11:32;;;;;;;5.28;2.35;;;34.80;99.90;;;;;;5139183;28;20048;-69
2023/10/13 13:14:03;;;;;;;6.03;2.70;;;34.20;76.80;;;;;;5172496;28;20242;-68
2023/10/13 13:16:39;;;;;;;4.25;2.20;;;33.70;99.90;;;;;;5159678;28;20314;-70
2023/10/13 13:19:10;;;;;;;6.00;3.05;;;34.20;99.90;;;;;;5153586;28;20053;-67
2023/10/13 13:21:42;;;;;;;5.72;2.72;;;35.10;99.90;;;;;;5125623;28;20043;-66
2023/10/13 13:24:16;;;;;;;4.88;2.13;;;35.40;99.90;;;;;;5160478;28;20038;-67
2023/10/13 13:26:48;;;;;;;3.60;2.63;;;35.60;99.90;;;;;;5130042;28;20038;-69
2023/10/13 13:29:21;;;;;;;5.40;2.58;;;35.50;99.90;;;;;;5160645;28;20038;-68
2023/10/13 13:31:53;;;;;;;4.75;2.58;;;35.50;99.90;;;;;;5136645;28;20358;-70
2023/10/13 13:34:27;;;;;;;6.03;2.97;;;35.00;78.80;;;;;;5139806;28;20039;-68
2023/10/13 13:37:00;;;;;;;3.25;1.98;;;34.40;56.00;;;;;;5121417;28;20409;-68
2023/10/13 13:39:43;;;;;;;6.28;2.47;;;33.80;67.20;;;;;;5154238;28;20389;-69
2023/10/13 13:42:17;;;;;;;2.85;2.05;;;33.50;53.00;;;;;;5140552;28;20057;-68
2023/10/13 13:44:52;;;;;;;6.43;2.40;;;33.20;48.90;;;;;;5169182;28;20040;-70
2023/10/13 13:47:24;;;;;;;3.20;2.28;;;33.90;41.30;;;;;;5102441;28;20049;-69
2023/10/13 13:49:58;;;;;;;4.32;2.40;;;34.10;99.90;;;;;;5142793;28;20057;-68
2023/10/13 13:52:33;;;;;;;3.35;1.88;;;34.40;99.90;;;;;;5159688;28;20250;-70
2023/10/13 13:55:07;;;;;;;4.82;2.70;;;34.50;99.90;;;;;;5123436;28;20044;-68
2023/10/13 13:57:41;;;;;;;;;;;34.20;91.60;;;;;;5106506;28;20072;-70
2023/10/13 14:00:48;;;;;;;4.75;2.58;;;33.50;77.80;;;;;;5136597;28;20141;-69
2023/10/13 14:03:31;;;;;;;5.10;2.08;;;32.10;1.00;;;;;;5140898;28;20053;-68
2023/10/13 14:06:03;;;;;;;6.57;2.60;;;32.50;1.00;;;;;;5148528;28;20037;-66
2023/10/13 14:08:34;;;;;;;7.80;2.35;;;32.50;1.00;;;;;;5160670;28;20507;-67
2023/10/13 14:13:48;;;;;;;5.72;2.92;;;32.10;1.00;;;;;;5161089;28;20062;-65
2023/10/13 14:16:26;;;;;;;5.50;2.67;;;32.00;1.00;;;;;;5104307;28;20046;-68
2023/10/13 14:18:58;;;;;;;4.97;3.08;;;31.10;1.00;;;;;;5132675;28;20058;-70
2023/10/13 14:21:32;;;;;;;4.93;2.53;;;31.20;1.00;;;;;;5178309;28;20059;-68
2023/10/13 14:24:13;;;;;;;4.13;2.10;;;31.80;1.00;;;;;;5167137;28;20041;-68
2023/10/13 14:26:48;;;;;;;4.45;2.47;;;32.20;1.00;;;;;;5159841;28;20026;-67
2023/10/13 14:29:19;;;;;;;4.47;2.60;;;32.00;1.00;;;;;;5155510;28;20061;-69
2023/10/13 14:31:54;;;;;;;7.07;3.55;;;31.70;99.90;;;;;;5166320;28;20218;-67
2023/10/13 14:34:30;;;;;;;4.20;2.63;;;31.40;3.80;;;;;;5164080;28;20042;-67
2023/10/13 14:37:01;;;;;;;4.18;2.35;;;31.40;83.60;;;;;;5125313;28;20046;-67
2023/10/13 14:39:37;;;;;;;2.90;2.10;;;31.30;98.20;;;;;;5132378;28;20523;-68
2023/10/13 14:42:10;;;;;;;6.00;2.25;;;31.00;98.10;;;;;;5130870;28;20108;-68
2023/10/13 14:44:41;;;;;;;6.43;2.20;;;30.60;77.10;;;;;;5128891;28;20596;-68
2023/10/13 14:47:13;;;;;;;7.25;2.50;;;30.10;58.30;;;;;;5161184;28;20410;-68
2023/10/13 14:49:44;;;;;;;5.68;2.75;;;29.60;29.40;;;;;;5146138;28;20038;-65
2023/10/13 14:52:17;;;;;;;6.20;2.45;;;29.20;99.90;;;;;;5156511;28;20044;-68
2023/10/13 14:54:57;;;;;;;4.53;2.00;;;28.80;99.90;;;;;;5147945;28;20049;-67
2023/10/13 14:57:29;;;;;;;3.92;2.08;;;28.40;99.90;;;;;;5154556;28;20060;-67
2023/10/13 15:00:13;;;;;;;8.27;2.47;;;28.00;99.90;;;;;;5149893;28;20049;-68
2023/10/13 15:02:47;;;;;;;7.33;2.17;;;27.50;35.00;;;;;;5142207;28;20034;-69
2023/10/13 15:05:21;;;;;;;4.70;2.38;;;27.30;69.30;;;;;;5132264;28;20056;-65
2023/10/13 15:07:52;;;;;;;2.90;2.38;;;26.90;1.00;;;;;;5133552;28;20614;-65
2023/10/13 15:10:28;;;;;;;3.47;2.55;;;26.80;43.10;;;;;;5140033;28;20041;-68
2023/10/13 15:13:01;;;;;;;3.88;2.35;;;26.50;27.80;;;;;;5134509;28;20052;-67
2023/10/13 15:15:35;;;;;;;4.10;2.40;;;26.40;1.00;;;;;;5147885;28;20046;-68
2023/10/13 15:18:07;;;;;;;;;;;26.20;99.90;;;;;;5147207;28;20031;-67
2023/10/13 15:20:43;;;;;;;4.75;2.00;;;26.00;99.90;;;;;;5153609;28;19913;-67
2023/10/13 15:23:22;;;;;;;5.50;3.00;;;25.90;99.90;;;;;;5151880;28;20038;-68
2023/10/13 15:25:54;;;;;;;5.28;2.42;;;25.60;99.90;;;;;;5154001;28;20049;-67
2023/10/13 15:28:30;;;;;;;5.40;2.63;;;25.50;1.00;;;;;;5133908;28;20046;-67
2023/10/13 15:34:14;;;;;;;3.80;2.10;;;25.10;1.00;;;;;;5109185;28;20387;-67
2023/10/13 15:36:46;;;;;;;9.95;3.10;;;24.90;1.00;;;;;;5090646;28;20223;-69
2023/10/13 15:39:23;;;;;;;3.78;2.50;;;24.70;1.00;;;;;;5089504;28;20221;-67
2023/10/13 15:41:58;;;;;;;5.85;2.85;;;24.60;1.00;;;;;;5107584;28;20038;-67
2023/10/13 15:44:34;;;;;;;3.92;2.35;;;24.40;99.90;;;;;;5131745;28;20685;-68
2023/10/13 15:47:06;;;;;;;5.55;2.40;;;24.20;99.90;;;;;;5164108;28;20038;-67
2023/10/13 15:49:42;;;;;;;4.25;2.45;;;24.10;99.90;;;;;;5168746;28;20033;-66
2023/10/13 15:52:15;;;;;;;4.50;2.65;;;23.90;99.90;;;;;;5125545;28;20049;-67
2023/10/13 15:54:47;;;;;;;3.50;2.45;;;23.80;99.90;;;;;;5168019;28;20123;-67
2023/10/13 15:57:20;;;;;;;3.95;2.70;;;23.70;48.10;;;;;;5152091;28;20049;-67
2023/10/13 15:59:56;;;;;;;3.58;2.60;;;23.50;40.70;;;;;;5144961;28;20048;-68
2023/10/13 16:02:28;;;;;;;3.75;2.67;;;23.40;1.00;;;;;;5135683;28;20463;-66
2023/10/13 16:05:00;;;;;;;5.68;3.22;;;23.30;1.00;;;;;;5151893;28;20037;-68
2023/10/13 16:07:34;;;;;;;4.95;2.67;;;23.20;1.00;;;;;;5166653;28;20052;-67
2023/10/13 16:10:11;;;;;;;13.70;3.35;;;23.00;1.00;;;;;;5168093;28;20033;-68
2023/10/13 16:12:44;;;;;;;6.32;3.10;;;22.90;1.00;;;;;;5112570;28;20362;-68
2023/10/13 16:15:18;;;;;;;11.98;3.40;;;22.80;1.00;;;;;;5133293;28;20067;-66
2023/10/13 16:17:53;;;;;;;4.50;2.60;;;22.60;99.90;;;;;;5120130;28;20226;-66
2023/10/13 16:20:35;;;;;;;6.10;2.80;;;22.50;99.90;;;;;;5151444;28;20389;-67
2023/10/13 16:23:06;;;;;;;4.28;2.20;;;22.30;1.00;;;;;;5164302;28;20043;-67
2023/10/13 16:25:38;;;;;;;6.45;3.15;;;22.10;1.00;;;;;;5134132;28;20044;-66
2023/10/13 16:28:12;;;;;;;4.72;2.92;;;21.90;1.00;;;;;;5135396;28;20050;-67
2023/10/13 16:30:47;;;;;;;6.25;3.17;;;21.80;1.00;;;;;;5133229;28;20052;-67
2023/10/13 16:33:23;;;;;;;6.32;3.42;;;21.60;1.00;;;;;;5147244;28;20052;-66
2023/10/13 16:35:58;;;;;;;5.75;2.67;;;21.40;1.00;;;;;;5134364;28;20038;-71